Time;durP1;ratioP1;P1;durP2;ratioP2;P2;SDS_P1;SDS_P2;PMS_P1;PMS_P2;Temp;Humidity;BMP_temperature;BMP_pressure;BME280_temperature;BME280_humidity;BME280_pressure;Samples;Min_cycle;Max_cycle;Signal;HPM_P1;HPM_P2
2022/09/19 00:00:07;;;;;;;;;;;;;;;;;;6199637;23;19919;-85
2022/09/19 00:02:40;;;;;;;;;;;;;;;;;;6219498;23;19919;-85
2022/09/19 00:05:08;;;;;;;;;;;;;;;;;;6221587;23;19966;-85
2022/09/19 00:07:47;;;;;;;;;;;;;;;;;;6221733;23;20451;-85
2022/09/19 00:10:15;;;;;;;;;;;;;;;;;;6226978;23;19920;-85
2022/09/19 00:12:41;;;;;;;;;;;;;;;;;;6197413;23;20359;-86
2022/09/19 00:15:08;;;;;;;;;;;;;;;;;;6200098;23;19919;-85
2022/09/19 00:17:49;;;;;;;;;;;;;;;;;;6168784;23;20066;-86
2022/09/19 00:20:21;;;;;;;;;;;;;;;;;;6139403;23;19990;-86
2022/09/19 00:25:51;;;;;;;;;;;;;;;;;;6142329;23;19927;-85
2022/09/19 00:28:17;;;;;;;;;;;;;;;;;;6076708;23;19921;-85
2022/09/19 00:30:54;;;;;;;;;;;;;;;;;;6101649;23;20605;-85
2022/09/19 00:33:21;;;;;;;;;;;;;;;;;;6090371;23;19932;-85
2022/09/19 00:35:54;;;;;;;;;;;;;;;;;;6115701;23;19920;-85
2022/09/19 00:38:23;;;;;;;;;;;;;;;;;;6101818;23;20059;-85
2022/09/19 00:40:50;;;;;;;;;;;;;;;;;;6099713;23;19984;-85
2022/09/19 00:43:17;;;;;;;;;;;;;;;;;;6101821;23;19921;-86
2022/09/19 00:45:45;;;;;;;;;;;;;;;;;;6099073;23;19920;-86
2022/09/19 00:48:13;;;;;;;;;;;;;;;;;;6108121;23;20086;-85
2022/09/19 00:50:40;;;;;;;;;;;;;;;;;;6080928;23;19927;-86
2022/09/19 00:53:07;;;;;;;;;;;;;;;;;;6084597;23;19931;-85
2022/09/19 00:55:40;;;;;;;;;;;;;;;;;;6083925;23;19920;-85
2022/09/19 00:58:08;;;;;;;;;;;;;;;;;;6108780;23;19924;-85
2022/09/19 01:00:34;;;;;;;;;;;;;;;;;;6108365;23;20432;-84
2022/09/19 01:03:09;;;;;;;;;;;;;;;;;;6084750;23;19920;-85
2022/09/19 01:05:42;;;;;;;;;;;;;;;;;;6144865;23;19923;-84
2022/09/19 01:08:09;;;;;;;;;;;;;;;;;;6172198;23;19919;-85
2022/09/19 01:10:40;;;;;;;;;;;;;;;;;;6198279;23;19915;-84
2022/09/19 01:13:10;;;;;;;;;;;;;;;;;;6201138;22;20493;-84
2022/09/19 01:15:47;;;;;;;;;;;;;;;;;;6230940;22;19919;-84
2022/09/19 01:18:13;;;;;;;;;;;;;;;;;;6205605;22;19931;-84
2022/09/19 01:20:44;;;;;;;;;;;;;;;;;;6227821;22;19919;-84
2022/09/19 01:23:15;;;;;;;;;;;;;;;;;;6229973;22;19926;-84
2022/09/19 01:25:45;;;;;;;;;;;;;;;;;;6198611;22;19923;-84
2022/09/19 01:28:17;;;;;;;;;;;;;;;;;;6254940;22;20079;-84
2022/09/19 01:30:46;;;;;;;;;;;;;;;;;;6205115;22;19927;-84
2022/09/19 01:33:17;;;;;;;;;;;;;;;;;;6204204;22;19915;-84
2022/09/19 01:35:45;;;;;;;;;;;;;;;;;;6226437;22;19919;-84
2022/09/19 01:38:12;;;;;;;;;;;;;;;;;;6203659;22;20025;-84
2022/09/19 01:40:38;;;;;;;;;;;;;;;;;;6225214;22;20528;-84
2022/09/19 01:43:20;;;;;;;;;;;;;;;;;;6193963;23;19974;-84
2022/09/19 01:45:47;;;;;;;;;;;;;;;;;;6167002;23;19920;-84
2022/09/19 01:48:20;;;;;;;;;;;;;;;;;;6168977;23;20272;-84
2022/09/19 01:50:48;;;;;;;;;;;;;;;;;;6168107;23;19920;-84
2022/09/19 01:53:15;;;;;;;;;;;;;;;;;;6166206;23;19923;-84
2022/09/19 01:55:42;;;;;;;;;;;;;;;;;;6142723;23;20288;-84
2022/09/19 01:58:14;;;;;;;;;;;;;;;;;;6168475;23;19998;-85
2022/09/19 02:00:43;;;;;;;;;;;;;;;;;;6165279;23;19920;-85
2022/09/19 02:03:10;;;;;;;;;;;;;;;;;;6142562;23;20075;-85
2022/09/19 02:05:37;;;;;;;;;;;;;;;;;;6168222;23;19924;-84
2022/09/19 02:08:04;;;;;;;;;;;;;;;;;;6196904;23;19920;-84
2022/09/19 02:10:31;;;;;;;;;;;;;;;;;;6192819;23;19923;-84
2022/09/19 02:12:57;;;;;;;;;;;;;;;;;;6190512;23;20304;-85
2022/09/19 02:15:28;;;;;;;;;;;;;;;;;;6200001;22;19916;-85
2022/09/19 02:18:12;;;;;;;;;;;;;;;;;;6257332;22;20181;-84
2022/09/19 02:20:39;;;;;;;;;;;;;;;;;;6225865;22;20310;-84
2022/09/19 02:23:09;;;;;;;;;;;;;;;;;;6230747;22;19919;-84
2022/09/19 02:25:35;;;;;;;;;;;;;;;;;;6223235;22;19923;-85
2022/09/19 02:28:07;;;;;;;;;;;;;;;;;;6253995;22;19919;-84
2022/09/19 02:30:46;;;;;;;;;;;;;;;;;;6263917;22;19926;-85
2022/09/19 02:33:17;;;;;;;;;;;;;;;;;;6229651;22;19933;-85
2022/09/19 02:35:48;;;;;;;;;;;;;;;;;;6201663;22;20695;-85
2022/09/19 02:38:26;;;;;;;;;;;;;;;;;;6229614;22;20063;-85
2022/09/19 02:40:55;;;;;;;;;;;;;;;;;;6252698;22;20453;-85
2022/09/19 02:43:36;;;;;;;;;;;;;;;;;;6193757;23;20272;-85
2022/09/19 02:46:04;;;;;;;;;;;;;;;;;;6173260;23;19966;-85
2022/09/19 02:48:36;;;;;;;;;;;;;;;;;;6193555;23;19974;-85
2022/09/19 02:51:03;;;;;;;;;;;;;;;;;;6145708;23;19916;-85
2022/09/19 02:53:31;;;;;;;;;;;;;;;;;;6146178;23;19920;-85
2022/09/19 02:56:03;;;;;;;;;;;;;;;;;;6143386;23;19926;-85
2022/09/19 02:58:34;;;;;;;;;;;;;;;;;;6170157;23;19924;-84
2022/09/19 03:01:01;;;;;;;;;;;;;;;;;;6143460;23;19920;-85
2022/09/19 03:06:13;;;;;;;;;;;;;;;;;;6194101;23;19920;-85
2022/09/19 03:08:44;;;;;;;;;;;;;;;;;;6141734;23;20010;-85
2022/09/19 03:11:22;;;;;;;;;;;;;;;;;;6194561;23;19916;-85
2022/09/19 03:13:58;;;;;;;;;;;;;;;;;;6178373;22;20332;-85
2022/09/19 03:16:36;;;;;;;;;;;;;;;;;;6227984;22;19976;-85
2022/09/19 03:19:05;;;;;;;;;;;;;;;;;;6231501;22;19923;-85
2022/09/19 03:21:32;;;;;;;;;;;;;;;;;;6231416;22;19978;-85
2022/09/19 03:24:07;;;;;;;;;;;;;;;;;;6179222;22;19919;-85
2022/09/19 03:26:38;;;;;;;;;;;;;;;;;;6233154;22;20470;-85
2022/09/19 03:29:04;;;;;;;;;;;;;;;;;;6208156;22;20672;-84
2022/09/19 03:31:32;;;;;;;;;;;;;;;;;;6233215;22;20355;-85
2022/09/19 03:33:59;;;;;;;;;;;;;;;;;;6202446;22;20328;-85
2022/09/19 03:36:28;;;;;;;;;;;;;;;;;;6258303;22;19919;-85
2022/09/19 03:39:01;;;;;;;;;;;;;;;;;;6255958;22;19963;-85
2022/09/19 03:41:32;;;;;;;;;;;;;;;;;;6227664;22;19929;-85
2022/09/19 03:44:03;;;;;;;;;;;;;;;;;;6233609;22;20231;-85
2022/09/19 03:46:36;;;;;;;;;;;;;;;;;;6234234;22;19926;-85
2022/09/19 03:49:24;;;;;;;;;;;;;;;;;;6239944;22;20411;-85
2022/09/19 03:51:55;;;;;;;;;;;;;;;;;;6207522;22;19919;-85
2022/09/19 03:54:21;;;;;;;;;;;;;;;;;;6236575;22;19934;-85
2022/09/19 03:56:47;;;;;;;;;;;;;;;;;;6232126;22;19922;-85
2022/09/19 03:59:13;;;;;;;;;;;;;;;;;;6209036;22;20331;-85
2022/09/19 04:01:39;;;;;;;;;;;;;;;;;;6200380;22;19919;-85
2022/09/19 04:04:06;;;;;;;;;;;;;;;;;;6257249;22;19927;-85
2022/09/19 04:06:32;;;;;;;;;;;;;;;;;;6203043;22;19919;-85
2022/09/19 04:09:00;;;;;;;;;;;;;;;;;;6199625;22;19922;-85
2022/09/19 04:11:27;;;;;;;;;;;;;;;;;;6203189;22;19915;-85
2022/09/19 04:13:55;;;;;;;;;;;;;;;;;;6204187;22;19919;-85
2022/09/19 04:16:22;;;;;;;;;;;;;;;;;;6259922;22;19915;-85
2022/09/19 04:18:50;;;;;;;;;;;;;;;;;;6201824;22;19919;-85
2022/09/19 04:21:17;;;;;;;;;;;;;;;;;;6233912;22;19925;-85
2022/09/19 04:23:43;;;;;;;;;;;;;;;;;;6206946;22;19919;-85
2022/09/19 04:26:10;;;;;;;;;;;;;;;;;;6231455;22;20006;-85
2022/09/19 04:28:39;;;;;;;;;;;;;;;;;;6228127;22;19919;-85
2022/09/19 04:31:05;;;;;;;;;;;;;;;;;;6234419;22;19985;-84
2022/09/19 04:33:36;;;;;;;;;;;;;;;;;;6230694;22;20079;-84
2022/09/19 04:36:02;;;;;;;;;;;;;;;;;;6230678;22;19945;-84
2022/09/19 04:38:32;;;;;;;;;;;;;;;;;;6231962;22;19927;-84
2022/09/19 04:41:00;;;;;;;;;;;;;;;;;;6257028;22;19919;-84
2022/09/19 04:43:29;;;;;;;;;;;;;;;;;;6206895;22;19923;-84
2022/09/19 04:45:56;;;;;;;;;;;;;;;;;;6206016;22;19930;-84
2022/09/19 04:48:22;;;;;;;;;;;;;;;;;;6206961;22;19941;-84
2022/09/19 04:50:53;;;;;;;;;;;;;;;;;;6229743;22;19942;-85
2022/09/19 04:53:23;;;;;;;;;;;;;;;;;;6235120;22;19982;-84
2022/09/19 04:55:59;;;;;;;;;;;;;;;;;;6231048;22;20026;-85
2022/09/19 04:58:26;;;;;;;;;;;;;;;;;;6234156;22;19972;-85
2022/09/19 05:00:53;;;;;;;;;;;;;;;;;;6203010;22;19930;-85
2022/09/19 05:03:20;;;;;;;;;;;;;;;;;;6208764;22;19958;-85
2022/09/19 05:05:50;;;;;;;;;;;;;;;;;;6206501;22;19926;-85
2022/09/19 05:08:17;;;;;;;;;;;;;;;;;;6207860;22;19919;-85
2022/09/19 05:11:02;;;;;;;;;;;;;;;;;;6237285;22;19914;-84
2022/09/19 05:13:28;;;;;;;;;;;;;;;;;;6230969;22;19919;-84
2022/09/19 05:15:59;;;;;;;;;;;;;;;;;;6230221;22;19919;-84
2022/09/19 05:18:25;;;;;;;;;;;;;;;;;;6208463;22;19934;-84
2022/09/19 05:20:53;;;;;;;;;;;;;;;;;;6231533;22;19961;-84
2022/09/19 05:23:22;;;;;;;;;;;;;;;;;;6234815;22;19915;-84
2022/09/19 05:25:58;;;;;;;;;;;;;;;;;;6229050;22;20323;-84
2022/09/19 05:28:27;;;;;;;;;;;;;;;;;;6208169;22;19915;-84
2022/09/19 05:30:58;;;;;;;;;;;;;;;;;;6257802;22;19989;-84
2022/09/19 05:33:28;;;;;;;;;;;;;;;;;;6232007;22;19919;-84
2022/09/19 05:35:55;;;;;;;;;;;;;;;;;;6206160;22;19919;-84
2022/09/19 05:38:24;;;;;;;;;;;;;;;;;;6236475;22;19962;-85
2022/09/19 05:40:54;;;;;;;;;;;;;;;;;;6235598;22;20007;-84
2022/09/19 05:43:21;;;;;;;;;;;;;;;;;;6209459;22;19919;-85
2022/09/19 05:45:50;;;;;;;;;;;;;;;;;;6259501;22;19972;-84
2022/09/19 05:48:16;;;;;;;;;;;;;;;;;;6258776;22;19919;-85
2022/09/19 05:50:43;;;;;;;;;;;;;;;;;;6204444;22;19958;-85
2022/09/19 05:56:02;;;;;;;;;;;;;;;;;;6256772;22;19919;-85
2022/09/19 05:58:30;;;;;;;;;;;;;;;;;;6230241;22;20419;-84
2022/09/19 06:01:07;;;;;;;;;;;;;;;;;;6177908;22;19919;-84
2022/09/19 06:03:34;;;;;;;;;;;;;;;;;;6230354;22;20525;-84
2022/09/19 06:06:13;;;;;;;;;;;;;;;;;;6232318;22;19919;-84
2022/09/19 06:08:48;;;;;;;;;;;;;;;;;;6257221;22;19919;-85
2022/09/19 06:11:15;;;;;;;;;;;;;;;;;;6234609;22;20071;-85
2022/09/19 06:16:37;;;;;;;;;;;;;;;;;;6262177;22;19919;-85
2022/09/19 06:19:18;;;;;;;;;;;;;;;;;;6258673;22;20018;-85
2022/09/19 06:21:45;;;;;;;;;;;;;;;;;;6208134;22;19947;-85
2022/09/19 06:24:13;;;;;;;;;;;;;;;;;;6235446;22;19973;-85
2022/09/19 06:26:40;;;;;;;;;;;;;;;;;;6235185;22;19965;-84
2022/09/19 06:29:06;;;;;;;;;;;;;;;;;;6255706;22;20492;-84
2022/09/19 06:31:35;;;;;;;;;;;;;;;;;;6232746;22;19947;-86
2022/09/19 06:34:05;;;;;;;;;;;;;;;;;;6260674;22;19919;-85
2022/09/19 06:36:32;;;;;;;;;;;;;;;;;;6209114;22;19949;-85
2022/09/19 06:38:59;;;;;;;;;;;;;;;;;;6232364;22;20356;-84
2022/09/19 06:41:27;;;;;;;;;;;;;;;;;;6238702;22;19916;-84
2022/09/19 06:43:54;;;;;;;;;;;;;;;;;;6208877;22;19915;-84
2022/09/19 06:46:20;;;;;;;;;;;;;;;;;;6213243;22;19926;-84
2022/09/19 06:48:50;;;;;;;;;;;;;;;;;;6210770;22;19919;-84
2022/09/19 06:51:16;;;;;;;;;;;;;;;;;;6213352;22;20286;-84
2022/09/19 06:53:47;;;;;;;;;;;;;;;;;;6261821;22;19919;-84
2022/09/19 06:56:15;;;;;;;;;;;;;;;;;;6238306;22;19919;-84
2022/09/19 06:58:43;;;;;;;;;;;;;;;;;;6209061;22;20324;-84
2022/09/19 07:01:11;;;;;;;;;;;;;;;;;;6237570;22;20402;-84
2022/09/19 07:03:39;;;;;;;;;;;;;;;;;;6234216;22;19923;-85
2022/09/19 07:06:06;;;;;;;;;;;;;;;;;;6214501;22;19919;-84
2022/09/19 07:08:33;;;;;;;;;;;;;;;;;;6211598;22;19919;-84
2022/09/19 07:11:00;;;;;;;;;;;;;;;;;;6208500;22;19919;-85
2022/09/19 07:13:26;;;;;;;;;;;;;;;;;;6207031;22;19926;-85
2022/09/19 07:15:53;;;;;;;;;;;;;;;;;;6204366;22;19919;-85
2022/09/19 07:18:19;;;;;;;;;;;;;;;;;;6233271;22;19924;-85
2022/09/19 07:20:49;;;;;;;;;;;;;;;;;;6229288;22;19934;-85
2022/09/19 07:23:36;;;;;;;;;;;;;;;;;;6259823;22;19960;-84
2022/09/19 07:26:23;;;;;;;;;;;;;;;;;;6175564;23;19916;-85
2022/09/19 07:28:49;;;;;;;;;;;;;;;;;;6148966;23;19924;-86
2022/09/19 07:31:16;;;;;;;;;;;;;;;;;;6176772;23;19922;-84
2022/09/19 07:33:42;;;;;;;;;;;;;;;;;;6196684;23;19927;-84
2022/09/19 07:36:11;;;;;;;;;;;;;;;;;;6152222;23;19956;-84
2022/09/19 07:38:37;;;;;;;;;;;;;;;;;;6113769;23;19921;-85
2022/09/19 07:41:10;;;;;;;;;;;;;;;;;;6116105;23;19955;-85
2022/09/19 07:43:37;;;;;;;;;;;;;;;;;;6089854;23;19916;-85
2022/09/19 07:46:05;;;;;;;;;;;;;;;;;;6143295;23;19967;-85
2022/09/19 07:48:32;;;;;;;;;;;;;;;;;;6093154;23;19970;-85
2022/09/19 07:51:02;;;;;;;;;;;;;;;;;;6140872;23;19916;-85
2022/09/19 07:53:38;;;;;;;;;;;;;;;;;;6139541;23;19917;-85
2022/09/19 07:56:06;;;;;;;;;;;;;;;;;;6141135;23;20453;-85
2022/09/19 07:58:34;;;;;;;;;;;;;;;;;;6118715;23;19925;-84
2022/09/19 08:01:20;;;;;;;;;;;;;;;;;;6121227;23;20293;-85
2022/09/19 08:03:46;;;;;;;;;;;;;;;;;;6090072;23;19921;-85
2022/09/19 08:06:13;;;;;;;;;;;;;;;;;;6116004;23;19964;-85
2022/09/19 08:08:40;;;;;;;;;;;;;;;;;;6089648;23;19944;-85
2022/09/19 08:11:07;;;;;;;;;;;;;;;;;;6164440;23;19977;-85
2022/09/19 08:13:37;;;;;;;;;;;;;;;;;;6118074;23;20337;-85
2022/09/19 08:16:06;;;;;;;;;;;;;;;;;;6173647;23;19920;-85
2022/09/19 08:18:48;;;;;;;;;;;;;;;;;;6230549;23;19927;-85
2022/09/19 08:21:15;;;;;;;;;;;;;;;;;;6233152;23;19923;-85
2022/09/19 08:23:42;;;;;;;;;;;;;;;;;;6228229;23;20276;-85
2022/09/19 08:26:16;;;;;;;;;;;;;;;;;;6231209;23;19924;-85
2022/09/19 08:28:44;;;;;;;;;;;;;;;;;;6204225;23;19922;-86
2022/09/19 08:31:12;;;;;;;;;;;;;;;;;;6233277;23;20046;-86
2022/09/19 08:33:48;;;;;;;;;;;;;;;;;;6203062;23;19943;-85
2022/09/19 08:36:16;;;;;;;;;;;;;;;;;;6205048;23;19931;-85
2022/09/19 08:38:44;;;;;;;;;;;;;;;;;;6204250;23;19930;-85
2022/09/19 08:41:18;;;;;;;;;;;;;;;;;;6231126;23;19922;-85
2022/09/19 08:43:48;;;;;;;;;;;;;;;;;;6208148;23;19991;-85
2022/09/19 08:46:15;;;;;;;;;;;;;;;;;;6208052;23;19926;-86
2022/09/19 08:48:43;;;;;;;;;;;;;;;;;;6228210;23;19919;-86
2022/09/19 08:51:10;;;;;;;;;;;;;;;;;;6233160;23;19915;-86
2022/09/19 08:53:37;;;;;;;;;;;;;;;;;;6224785;23;19923;-86
2022/09/19 08:56:04;;;;;;;;;;;;;;;;;;6204800;23;19920;-86
2022/09/19 08:58:30;;;;;;;;;;;;;;;;;;6227814;23;19934;-86
2022/09/19 09:00:58;;;;;;;;;;;;;;;;;;6226090;23;20026;-86
2022/09/19 09:03:24;;;;;;;;;;;;;;;;;;6230219;23;19934;-85
2022/09/19 09:05:54;;;;;;;;;;;;;;;;;;6233810;22;19954;-86
2022/09/19 09:08:23;;;;;;;;;;;;;;;;;;6264473;22;20244;-86
2022/09/19 09:10:51;;;;;;;;;;;;;;;;;;6263458;22;19982;-86
2022/09/19 09:13:36;;;;;;;;;;;;;;;;;;6165691;23;20032;-86
2022/09/19 09:16:09;;;;;;;;;;;;;;;;;;6147118;23;20008;-86
2022/09/19 09:18:35;;;;;;;;;;;;;;;;;;6143301;23;19951;-86
2022/09/19 09:21:05;;;;;;;;;;;;;;;;;;6145076;23;19916;-86
2022/09/19 09:23:33;;;;;;;;;;;;;;;;;;6141346;23;19920;-85
2022/09/19 09:26:00;;;;;;;;;;;;;;;;;;6161677;23;20309;-85
2022/09/19 09:28:49;;;;;;;;;;;;;;;;;;6131509;23;19920;-86
2022/09/19 09:31:19;;;;;;;;;;;;;;;;;;6114068;23;20371;-85
2022/09/19 09:33:48;;;;;;;;;;;;;;;;;;6132958;23;19927;-86
2022/09/19 09:36:16;;;;;;;;;;;;;;;;;;6138029;23;19928;-86
2022/09/19 09:38:50;;;;;;;;;;;;;;;;;;6109719;23;19921;-86
2022/09/19 09:44:05;;;;;;;;;;;;;;;;;;6112139;23;19923;-86
2022/09/19 09:46:37;;;;;;;;;;;;;;;;;;6137455;23;20482;-86
2022/09/19 09:49:07;;;;;;;;;;;;;;;;;;6114837;23;19917;-86
2022/09/19 09:51:39;;;;;;;;;;;;;;;;;;6089497;23;19980;-86
2022/09/19 09:56:14;;;;;;;;;;;;;;;;;;6114071;23;19987;-86
2022/09/19 09:57:06;;;;;;;;;;;;;;;;;;6139518;23;20256;-86
2022/09/19 10:05:06;;;;;;;;;;;;;;;;;;6170201;23;20297;-86
2022/09/19 10:07:34;;;;;;;;;;;;;;;;;;6144413;23;19920;-87
2022/09/19 10:10:01;;;;;;;;;;;;;;;;;;6191472;23;19920;-86
2022/09/19 10:12:27;;;;;;;;;;;;;;;;;;6173661;23;19919;-86
2022/09/19 10:14:55;;;;;;;;;;;;;;;;;;6195307;23;20086;-86
2022/09/19 10:17:22;;;;;;;;;;;;;;;;;;6166982;23;20003;-86
2022/09/19 10:19:49;;;;;;;;;;;;;;;;;;6192745;23;19915;-85
2022/09/19 10:22:16;;;;;;;;;;;;;;;;;;6202474;23;19933;-86
2022/09/19 10:24:45;;;;;;;;;;;;;;;;;;6195489;23;20014;-86
2022/09/19 10:27:12;;;;;;;;;;;;;;;;;;6198831;23;20778;-86
2022/09/19 10:29:59;;;;;;;;;;;;;;;;;;6109161;23;19923;-86
2022/09/19 10:32:34;;;;;;;;;;;;;;;;;;6136248;23;19979;-86
2022/09/19 10:35:05;;;;;;;;;;;;;;;;;;6134773;23;20000;-86
2022/09/19 10:37:33;;;;;;;;;;;;;;;;;;6135618;23;20003;-86
2022/09/19 10:40:00;;;;;;;;;;;;;;;;;;6107856;23;19956;-86
2022/09/19 10:42:30;;;;;;;;;;;;;;;;;;6134681;23;19960;-86
2022/09/19 10:45:02;;;;;;;;;;;;;;;;;;6132424;23;19947;-86
2022/09/19 10:47:30;;;;;;;;;;;;;;;;;;6110855;23;19924;-86
2022/09/19 10:50:05;;;;;;;;;;;;;;;;;;6136416;23;19925;-86
2022/09/19 10:52:33;;;;;;;;;;;;;;;;;;6109798;23;20324;-86
2022/09/19 10:55:00;;;;;;;;;;;;;;;;;;6109837;23;19920;-86
2022/09/19 10:57:28;;;;;;;;;;;;;;;;;;6137755;23;20462;-86
2022/09/19 10:59:58;;;;;;;;;;;;;;;;;;6131929;23;20490;-86
2022/09/19 11:02:25;;;;;;;;;;;;;;;;;;6113674;23;19920;-86
2022/09/19 11:04:55;;;;;;;;;;;;;;;;;;6144292;23;19920;-86
2022/09/19 11:07:54;;;;;;;;;;;;;;;;;;6168637;23;19927;-86
2022/09/19 11:10:20;;;;;;;;;;;;;;;;;;6146077;23;19957;-85
2022/09/19 11:12:48;;;;;;;;;;;;;;;;;;6122813;22;19917;-86
2022/09/19 11:15:18;;;;;;;;;;;;;;;;;;6237361;22;20344;-85
2022/09/19 11:17:47;;;;;;;;;;;;;;;;;;6233584;22;19934;-86
2022/09/19 11:20:16;;;;;;;;;;;;;;;;;;6236992;22;19919;-85
2022/09/19 11:22:44;;;;;;;;;;;;;;;;;;6203716;22;19973;-86
2022/09/19 11:25:10;;;;;;;;;;;;;;;;;;6236433;22;19954;-86
2022/09/19 11:27:36;;;;;;;;;;;;;;;;;;6211106;22;19919;-86
2022/09/19 11:30:05;;;;;;;;;;;;;;;;;;6240086;22;19923;-86
2022/09/19 11:32:34;;;;;;;;;;;;;;;;;;6266325;22;19930;-85
2022/09/19 11:35:01;;;;;;;;;;;;;;;;;;6239337;22;19919;-86
2022/09/19 11:37:28;;;;;;;;;;;;;;;;;;6210048;22;19919;-86
2022/09/19 11:39:55;;;;;;;;;;;;;;;;;;6262257;22;19930;-86
2022/09/19 11:42:23;;;;;;;;;;;;;;;;;;6234748;22;19919;-86
2022/09/19 11:44:49;;;;;;;;;;;;;;;;;;6233384;22;19915;-86
2022/09/19 11:47:18;;;;;;;;;;;;;;;;;;6234631;22;19954;-86
2022/09/19 11:49:47;;;;;;;;;;;;;;;;;;6231462;22;19919;-86
2022/09/19 11:52:14;;;;;;;;;;;;;;;;;;6234984;22;19962;-87
2022/09/19 11:54:46;;;;;;;;;;;;;;;;;;6232446;22;19926;-87
2022/09/19 11:57:13;;;;;;;;;;;;;;;;;;6230195;22;19923;-86
2022/09/19 11:59:42;;;;;;;;;;;;;;;;;;6232298;22;19923;-87
2022/09/19 12:02:10;;;;;;;;;;;;;;;;;;6209616;22;19946;-86
2022/09/19 12:04:37;;;;;;;;;;;;;;;;;;6205411;22;19924;-86
2022/09/19 12:07:04;;;;;;;;;;;;;;;;;;6232332;22;19995;-87
2022/09/19 12:09:31;;;;;;;;;;;;;;;;;;6233248;22;19918;-86
2022/09/19 12:11:58;;;;;;;;;;;;;;;;;;6255555;22;20339;-86
2022/09/19 12:14:41;;;;;;;;;;;;;;;;;;6260836;22;19923;-86
2022/09/19 12:17:09;;;;;;;;;;;;;;;;;;6232113;22;19915;-86
2022/09/19 12:19:48;;;;;;;;;;;;;;;;;;6258596;22;19926;-87
2022/09/19 12:22:15;;;;;;;;;;;;;;;;;;6207504;22;19923;-86
2022/09/19 12:24:58;;;;;;;;;;;;;;;;;;6259498;22;19918;-86
2022/09/19 12:27:34;;;;;;;;;;;;;;;;;;6232119;22;19973;-86
2022/09/19 12:30:12;;;;;;;;;;;;;;;;;;6231823;22;19969;-86
2022/09/19 12:32:40;;;;;;;;;;;;;;;;;;6204951;22;19929;-86
2022/09/19 12:35:15;;;;;;;;;;;;;;;;;;6260205;22;19923;-87
2022/09/19 12:37:41;;;;;;;;;;;;;;;;;;6204929;22;19990;-86
2022/09/19 12:40:22;;;;;;;;;;;;;;;;;;6218328;22;20335;-86
2022/09/19 12:42:49;;;;;;;;;;;;;;;;;;6227498;22;19923;-87
2022/09/19 12:45:17;;;;;;;;;;;;;;;;;;6231362;22;19919;-87
2022/09/19 12:47:46;;;;;;;;;;;;;;;;;;6205391;22;19921;-86
2022/09/19 12:50:13;;;;;;;;;;;;;;;;;;6234869;22;20037;-87
2022/09/19 12:52:47;;;;;;;;;;;;;;;;;;6231701;22;19919;-86
2022/09/19 12:55:15;;;;;;;;;;;;;;;;;;6235601;22;19923;-86
2022/09/19 12:57:50;;;;;;;;;;;;;;;;;;6259087;22;20308;-86
2022/09/19 13:00:18;;;;;;;;;;;;;;;;;;6208369;22;20328;-87
2022/09/19 13:02:45;;;;;;;;;;;;;;;;;;6204381;22;19919;-86
2022/09/19 13:05:13;;;;;;;;;;;;;;;;;;6205888;22;19973;-87
2022/09/19 13:07:39;;;;;;;;;;;;;;;;;;6256906;22;19969;-87
2022/09/19 13:10:06;;;;;;;;;;;;;;;;;;6206968;22;19919;-86
2022/09/19 13:12:37;;;;;;;;;;;;;;;;;;6230185;22;20358;-86
2022/09/19 13:15:06;;;;;;;;;;;;;;;;;;6204638;22;20251;-87
2022/09/19 13:26:08;;;;;;;;;;;;;;;;;;6232200;22;19919;-86
2022/09/19 13:28:59;;;;;;;;;;;;;;;;;;6137456;23;19987;-86
2022/09/19 13:31:26;;;;;;;;;;;;;;;;;;6139973;23;20250;-87
2022/09/19 13:33:53;;;;;;;;;;;;;;;;;;6137300;23;19920;-86
2022/09/19 13:36:46;;;;;;;;;;;;;;;;;;6110358;23;20212;-86
2022/09/19 13:39:12;;;;;;;;;;;;;;;;;;6110681;23;19924;-86
2022/09/19 13:41:50;;;;;;;;;;;;;;;;;;6109455;23;20004;-86
2022/09/19 13:44:17;;;;;;;;;;;;;;;;;;6089723;23;19996;-86
2022/09/19 13:46:46;;;;;;;;;;;;;;;;;;6109203;23;19917;-86
2022/09/19 13:49:14;;;;;;;;;;;;;;;;;;6112190;23;19959;-86
2022/09/19 13:51:41;;;;;;;;;;;;;;;;;;6086312;23;19995;-86
2022/09/19 13:54:08;;;;;;;;;;;;;;;;;;6114147;23;19924;-86
2022/09/19 13:56:35;;;;;;;;;;;;;;;;;;6086066;23;19956;-86
2022/09/19 13:59:02;;;;;;;;;;;;;;;;;;6134726;23;20436;-86
2022/09/19 14:01:30;;;;;;;;;;;;;;;;;;6087031;23;19921;-88
2022/09/19 14:04:52;;;;;;;;;;;;;;;;;;6108897;23;19920;-86
2022/09/19 14:42:41;;;;;;;;;;;;;;;;;;6286298;22;19929;-86
2022/09/19 14:58:16;;;;;;;;;;;;;;;;;;6290622;22;19922;-86
2022/09/19 15:00:44;;;;;;;;;;;;;;;;;;6262869;22;19920;-86
2022/09/19 15:03:14;;;;;;;;;;;;;;;;;;6291791;22;19919;-86
2022/09/19 15:05:42;;;;;;;;;;;;;;;;;;6261564;22;19919;-86
2022/09/19 15:08:09;;;;;;;;;;;;;;;;;;6290753;22;19915;-85
2022/09/19 15:10:38;;;;;;;;;;;;;;;;;;6288750;22;20000;-86
2022/09/19 15:13:25;;;;;;;;;;;;;;;;;;6288155;22;19919;-86
2022/09/19 15:16:11;;;;;;;;;;;;;;;;;;6259659;22;19926;-86
2022/09/19 15:31:43;;;;;;;;;;;;;;;;;;6271735;22;20517;-90
2022/09/19 15:34:11;;;;;;;;;;;;;;;;;;6263427;22;19957;-90
2022/09/19 15:36:37;;;;;;;;;;;;;;;;;;6287870;22;20435;-92
2022/09/19 15:39:04;;;;;;;;;;;;;;;;;;6265946;22;20009;-91
2022/09/19 15:41:30;;;;;;;;;;;;;;;;;;6296735;22;20425;-90
2022/09/19 15:43:56;;;;;;;;;;;;;;;;;;6261166;22;20355;-90
2022/09/19 15:46:27;;;;;;;;;;;;;;;;;;6259946;22;20338;-91
2022/09/19 15:49:02;;;;;;;;;;;;;;;;;;6260411;22;20381;-90
2022/09/19 15:51:31;;;;;;;;;;;;;;;;;;6262029;22;19930;-90
2022/09/19 15:53:57;;;;;;;;;;;;;;;;;;6263493;22;19993;-91
2022/09/19 15:56:29;;;;;;;;;;;;;;;;;;6262098;22;20008;-90
2022/09/19 15:58:59;;;;;;;;;;;;;;;;;;6267179;22;20339;-90
2022/09/19 16:01:28;;;;;;;;;;;;;;;;;;6267236;22;20336;-91
2022/09/19 16:03:55;;;;;;;;;;;;;;;;;;6262936;22;19919;-92
2022/09/19 16:09:14;;;;;;;;;;;;;;;;;;6196280;23;19926;-93
2022/09/19 16:11:58;;;;;;;;;;;;;;;;;;;;;
2022/09/19 16:14:49;;;;;;;;;;;;;;;;;;6288939;22;19977;-92
2022/09/19 16:17:23;;;;;;;;;;;;;;;;;;6286097;22;19919;-91
2022/09/19 16:19:55;;;;;;;;;;;;;;;;;;6258783;22;19929;-92
2022/09/19 16:25:45;;;;;;;;;;;;;;;;;;6229307;23;19973;-93
2022/09/19 16:28:11;;;;;;;;;;;;;;;;;;6194644;23;19923;-92
2022/09/19 16:30:51;;;;;;;;;;;;;;;;;;6242776;22;20001;-93
2022/09/19 16:33:22;;;;;;;;;;;;;;;;;;6266567;22;19929;-92
2022/09/19 16:35:56;;;;;;;;;;;;;;;;;;6318136;22;20262;-92
2022/09/19 16:38:29;;;;;;;;;;;;;;;;;;6263012;22;19925;-92
2022/09/19 16:40:57;;;;;;;;;;;;;;;;;;6261753;22;19943;-92
2022/09/19 16:43:23;;;;;;;;;;;;;;;;;;6265138;22;20007;-91
2022/09/19 16:45:49;;;;;;;;;;;;;;;;;;6263428;22;19964;-91
2022/09/19 16:48:16;;;;;;;;;;;;;;;;;;6266299;22;20351;-92
2022/09/19 16:50:42;;;;;;;;;;;;;;;;;;6292327;22;20335;-91
2022/09/19 16:53:08;;;;;;;;;;;;;;;;;;6290572;22;19919;-91
2022/09/19 16:55:37;;;;;;;;;;;;;;;;;;6266611;22;20021;-91
2022/09/19 16:58:03;;;;;;;;;;;;;;;;;;6263012;22;20247;-93
2022/09/19 17:00:29;;;;;;;;;;;;;;;;;;6288809;22;20346;-93
2022/09/19 17:02:56;;;;;;;;;;;;;;;;;;6263880;22;19922;-92
2022/09/19 17:05:22;;;;;;;;;;;;;;;;;;6261660;22;19918;-92
2022/09/19 17:07:48;;;;;;;;;;;;;;;;;;6260499;22;19944;-91
2022/09/19 17:10:14;;;;;;;;;;;;;;;;;;6264708;22;20402;-92
2022/09/19 17:12:40;;;;;;;;;;;;;;;;;;6285119;22;19918;-91
2022/09/19 17:15:06;;;;;;;;;;;;;;;;;;6286559;22;20301;-91
2022/09/19 17:17:33;;;;;;;;;;;;;;;;;;6261744;22;20298;-90
2022/09/19 17:20:02;;;;;;;;;;;;;;;;;;6263005;22;19915;-90
2022/09/19 17:22:31;;;;;;;;;;;;;;;;;;6260255;22;20224;-92
2022/09/19 17:24:57;;;;;;;;;;;;;;;;;;6258670;22;20188;-92
2022/09/19 17:27:24;;;;;;;;;;;;;;;;;;6288144;22;19922;-91
2022/09/19 17:29:50;;;;;;;;;;;;;;;;;;6257230;22;19926;-91
2022/09/19 17:32:16;;;;;;;;;;;;;;;;;;6278423;22;19926;-91
2022/09/19 17:34:42;;;;;;;;;;;;;;;;;;6255378;22;20349;-91
2022/09/19 17:37:08;;;;;;;;;;;;;;;;;;6259963;22;20000;-92
2022/09/19 17:39:39;;;;;;;;;;;;;;;;;;6254859;22;19930;-91
2022/09/19 17:42:10;;;;;;;;;;;;;;;;;;6257455;22;20028;-92
2022/09/19 17:45:00;;;;;;;;;;;;;;;;;;6287320;22;20025;-92
2022/09/19 17:47:25;;;;;;;;;;;;;;;;;;6285091;22;20361;-92
2022/09/19 17:49:58;;;;;;;;;;;;;;;;;;6281663;22;19919;-92
2022/09/19 17:52:27;;;;;;;;;;;;;;;;;;6258153;22;19914;-92
2022/09/19 17:54:56;;;;;;;;;;;;;;;;;;6258387;22;19918;-91
2022/09/19 17:57:22;;;;;;;;;;;;;;;;;;6258357;22;19918;-92
2022/09/19 17:59:59;;;;;;;;;;;;;;;;;;6284082;22;19926;-92
2022/09/19 18:05:21;;;;;;;;;;;;;;;;;;6289226;22;20289;-91
2022/09/19 18:07:48;;;;;;;;;;;;;;;;;;6287686;22;19918;-92
2022/09/19 18:10:41;;;;;;;;;;;;;;;;;;;;;
2022/09/19 18:13:11;;;;;;;;;;;;;;;;;;6289020;22;19942;-93
2022/09/19 18:15:42;;;;;;;;;;;;;;;;;;6260804;22;19918;-91
2022/09/19 18:18:09;;;;;;;;;;;;;;;;;;6288363;22;20001;-92
2022/09/19 18:20:38;;;;;;;;;;;;;;;;;;6284811;22;20382;-91
2022/09/19 18:23:13;;;;;;;;;;;;;;;;;;6263411;22;19918;-91
2022/09/19 18:25:39;;;;;;;;;;;;;;;;;;6260336;22;19993;-92
2022/09/19 18:28:10;;;;;;;;;;;;;;;;;;6264110;22;19936;-91
2022/09/19 18:30:36;;;;;;;;;;;;;;;;;;6258346;22;19953;-92
2022/09/19 18:33:05;;;;;;;;;;;;;;;;;;6262513;22;20218;-91
2022/09/19 18:35:42;;;;;;;;;;;;;;;;;;6289655;22;20139;-93
2022/09/19 18:38:11;;;;;;;;;;;;;;;;;;6264226;22;19937;-93
2022/09/19 18:40:47;;;;;;;;;;;;;;;;;;6286787;22;20388;-91
2022/09/19 18:43:13;;;;;;;;;;;;;;;;;;6287719;22;19922;-92